sensor_id;sensor_type;location;lat;lon;timestamp;P1;durP1;ratioP1;P2;durP2;ratioP2
21474;SDS011;10899;53.576;9.960;2022-07-29T00:00:35;2.65;;;1.20;;
21474;SDS011;10899;53.576;9.960;2022-07-29T00:03:02;3.00;;;1.10;;
21474;SDS011;10899;53.576;9.960;2022-07-29T00:05:29;2.13;;;1.30;;
21474;SDS011;10899;53.576;9.960;2022-07-29T00:07:55;1.52;;;1.00;;
21474;SDS011;10899;53.576;9.960;2022-07-29T00:10:22;2.08;;;1.13;;
21474;SDS011;10899;53.576;9.960;2022-07-29T00:12:48;2.80;;;1.10;;
21474;SDS011;10899;53.576;9.960;2022-07-29T00:15:15;1.33;;;1.10;;
21474;SDS011;10899;53.576;9.960;2022-07-29T00:17:41;2.30;;;1.27;;
21474;SDS011;10899;53.576;9.960;2022-07-29T00:20:08;1.95;;;1.00;;
21474;SDS011;10899;53.576;9.960;2022-07-29T00:22:39;2.20;;;0.93;;
21474;SDS011;10899;53.576;9.960;2022-07-29T00:25:06;1.30;;;1.00;;
21474;SDS011;10899;53.576;9.960;2022-07-29T00:27:33;1.92;;;1.13;;
21474;SDS011;10899;53.576;9.960;2022-07-29T00:30:00;0.85;;;0.80;;
21474;SDS011;10899;53.576;9.960;2022-07-29T00:32:27;1.92;;;1.02;;
21474;SDS011;10899;53.576;9.960;2022-07-29T00:34:53;2.83;;;1.08;;
21474;SDS011;10899;53.576;9.960;2022-07-29T00:37:38;1.77;;;1.10;;
21474;SDS011;10899;53.576;9.960;2022-07-29T00:40:05;1.20;;;1.08;;
21474;SDS011;10899;53.576;9.960;2022-07-29T00:42:45;1.75;;;1.00;;
21474;SDS011;10899;53.576;9.960;2022-07-29T00:45:12;2.05;;;1.20;;
21474;SDS011;10899;53.576;9.960;2022-07-29T00:47:39;2.38;;;1.05;;
21474;SDS011;10899;53.576;9.960;2022-07-29T00:50:06;1.35;;;1.10;;
21474;SDS011;10899;53.576;9.960;2022-07-29T00:52:33;3.03;;;1.20;;
21474;SDS011;10899;53.576;9.960;2022-07-29T00:55:02;1.65;;;1.10;;
21474;SDS011;10899;53.576;9.960;2022-07-29T00:57:29;3.20;;;1.25;;
21474;SDS011;10899;53.576;9.960;2022-07-29T00:59:56;1.98;;;1.00;;
21474;SDS011;10899;53.576;9.960;2022-07-29T01:02:22;1.55;;;1.30;;
21474;SDS011;10899;53.576;9.960;2022-07-29T01:04:49;1.60;;;1.10;;
21474;SDS011;10899;53.576;9.960;2022-07-29T01:07:16;5.22;;;1.20;;
21474;SDS011;10899;53.576;9.960;2022-07-29T01:09:43;4.18;;;1.65;;
21474;SDS011;10899;53.576;9.960;2022-07-29T01:12:10;12.07;;;4.13;;
21474;SDS011;10899;53.576;9.960;2022-07-29T01:14:38;24.58;;;7.75;;
21474;SDS011;10899;53.576;9.960;2022-07-29T01:17:08;29.60;;;10.50;;
21474;SDS011;10899;53.576;9.960;2022-07-29T01:30:22;21.25;;;8.10;;
21474;SDS011;10899;53.576;9.960;2022-07-29T01:32:53;19.20;;;9.73;;
21474;SDS011;10899;53.576;9.960;2022-07-29T01:35:23;22.77;;;8.57;;
21474;SDS011;10899;53.576;9.960;2022-07-29T01:40:30;20.63;;;8.45;;
21474;SDS011;10899;53.576;9.960;2022-07-29T01:42:58;22.15;;;8.38;;
21474;SDS011;10899;53.576;9.960;2022-07-29T01:45:43;24.30;;;8.75;;
21474;SDS011;10899;53.576;9.960;2022-07-29T01:51:14;14.90;;;5.47;;
21474;SDS011;10899;53.576;9.960;2022-07-29T01:53:47;8.48;;;4.00;;
21474;SDS011;10899;53.576;9.960;2022-07-29T01:56:16;8.40;;;3.25;;
21474;SDS011;10899;53.576;9.960;2022-07-29T01:58:44;6.97;;;3.00;;
21474;SDS011;10899;53.576;9.960;2022-07-29T02:01:11;7.45;;;3.80;;
21474;SDS011;10899;53.576;9.960;2022-07-29T02:03:39;10.82;;;4.45;;
21474;SDS011;10899;53.576;9.960;2022-07-29T02:06:07;9.65;;;4.18;;
21474;SDS011;10899;53.576;9.960;2022-07-29T02:08:35;11.13;;;4.00;;
21474;SDS011;10899;53.576;9.960;2022-07-29T02:11:03;6.13;;;3.63;;
21474;SDS011;10899;53.576;9.960;2022-07-29T02:13:30;9.75;;;3.78;;
21474;SDS011;10899;53.576;9.960;2022-07-29T02:15:57;9.07;;;3.58;;
21474;SDS011;10899;53.576;9.960;2022-07-29T02:18:25;7.13;;;3.22;;
21474;SDS011;10899;53.576;9.960;2022-07-29T02:20:53;6.97;;;3.08;;
21474;SDS011;10899;53.576;9.960;2022-07-29T02:23:22;10.57;;;3.40;;
21474;SDS011;10899;53.576;9.960;2022-07-29T02:25:50;5.13;;;2.75;;
21474;SDS011;10899;53.576;9.960;2022-07-29T02:28:18;5.55;;;3.03;;
21474;SDS011;10899;53.576;9.960;2022-07-29T02:30:46;8.45;;;2.85;;
21474;SDS011;10899;53.576;9.960;2022-07-29T02:33:14;7.45;;;2.67;;
21474;SDS011;10899;53.576;9.960;2022-07-29T02:35:42;7.40;;;2.92;;
21474;SDS011;10899;53.576;9.960;2022-07-29T02:38:10;9.40;;;2.80;;
21474;SDS011;10899;53.576;9.960;2022-07-29T02:40:56;7.88;;;3.13;;
21474;SDS011;10899;53.576;9.960;2022-07-29T02:43:24;7.88;;;3.10;;
21474;SDS011;10899;53.576;9.960;2022-07-29T02:45:51;7.13;;;2.75;;
21474;SDS011;10899;53.576;9.960;2022-07-29T02:48:19;8.43;;;3.00;;
21474;SDS011;10899;53.576;9.960;2022-07-29T02:50:49;8.00;;;2.85;;
21474;SDS011;10899;53.576;9.960;2022-07-29T02:53:19;9.02;;;3.20;;
21474;SDS011;10899;53.576;9.960;2022-07-29T02:55:50;13.60;;;2.67;;
21474;SDS011;10899;53.576;9.960;2022-07-29T03:00:55;6.50;;;2.33;;
21474;SDS011;10899;53.576;9.960;2022-07-29T03:03:23;7.43;;;2.75;;
21474;SDS011;10899;53.576;9.960;2022-07-29T03:05:57;9.40;;;3.15;;
21474;SDS011;10899;53.576;9.960;2022-07-29T03:08:26;7.03;;;3.22;;
21474;SDS011;10899;53.576;9.960;2022-07-29T03:10:53;10.68;;;3.00;;
21474;SDS011;10899;53.576;9.960;2022-07-29T03:13:20;9.18;;;2.60;;
21474;SDS011;10899;53.576;9.960;2022-07-29T03:15:46;5.35;;;2.50;;
21474;SDS011;10899;53.576;9.960;2022-07-29T03:18:13;5.88;;;2.60;;
21474;SDS011;10899;53.576;9.960;2022-07-29T03:20:40;8.75;;;2.80;;
21474;SDS011;10899;53.576;9.960;2022-07-29T03:23:10;8.13;;;2.85;;
21474;SDS011;10899;53.576;9.960;2022-07-29T03:25:36;4.50;;;2.67;;
21474;SDS011;10899;53.576;9.960;2022-07-29T03:28:03;6.18;;;2.67;;
21474;SDS011;10899;53.576;9.960;2022-07-29T03:30:29;7.05;;;2.70;;
21474;SDS011;10899;53.576;9.960;2022-07-29T03:32:56;6.10;;;2.60;;
21474;SDS011;10899;53.576;9.960;2022-07-29T03:35:23;6.20;;;2.78;;
21474;SDS011;10899;53.576;9.960;2022-07-29T03:37:49;6.43;;;2.47;;
21474;SDS011;10899;53.576;9.960;2022-07-29T03:40:24;5.82;;;2.25;;
21474;SDS011;10899;53.576;9.960;2022-07-29T03:42:52;7.10;;;2.65;;
21474;SDS011;10899;53.576;9.960;2022-07-29T03:45:20;7.07;;;2.30;;
21474;SDS011;10899;53.576;9.960;2022-07-29T03:47:48;6.40;;;2.33;;
21474;SDS011;10899;53.576;9.960;2022-07-29T03:50:16;8.82;;;2.40;;
21474;SDS011;10899;53.576;9.960;2022-07-29T03:52:44;6.30;;;2.40;;
21474;SDS011;10899;53.576;9.960;2022-07-29T03:55:11;5.57;;;2.50;;
21474;SDS011;10899;53.576;9.960;2022-07-29T03:57:38;9.65;;;2.60;;
21474;SDS011;10899;53.576;9.960;2022-07-29T04:00:06;3.80;;;2.17;;
21474;SDS011;10899;53.576;9.960;2022-07-29T04:02:33;6.05;;;2.10;;
21474;SDS011;10899;53.576;9.960;2022-07-29T04:05:00;6.10;;;2.60;;
21474;SDS011;10899;53.576;9.960;2022-07-29T04:07:26;4.40;;;2.38;;
21474;SDS011;10899;53.576;9.960;2022-07-29T04:09:53;5.25;;;2.28;;
21474;SDS011;10899;53.576;9.960;2022-07-29T04:12:19;9.43;;;2.30;;
21474;SDS011;10899;53.576;9.960;2022-07-29T04:14:46;5.30;;;2.60;;
21474;SDS011;10899;53.576;9.960;2022-07-29T04:17:13;10.35;;;2.35;;
21474;SDS011;10899;53.576;9.960;2022-07-29T04:19:40;8.10;;;2.45;;
21474;SDS011;10899;53.576;9.960;2022-07-29T04:22:07;6.60;;;2.30;;
21474;SDS011;10899;53.576;9.960;2022-07-29T04:24:34;4.97;;;1.73;;
21474;SDS011;10899;53.576;9.960;2022-07-29T04:27:00;5.93;;;2.15;;
21474;SDS011;10899;53.576;9.960;2022-07-29T04:29:27;5.03;;;2.15;;
21474;SDS011;10899;53.576;9.960;2022-07-29T04:31:53;3.47;;;1.80;;
21474;SDS011;10899;53.576;9.960;2022-07-29T04:34:20;3.08;;;1.73;;
21474;SDS011;10899;53.576;9.960;2022-07-29T04:36:46;4.22;;;2.00;;
21474;SDS011;10899;53.576;9.960;2022-07-29T04:39:13;4.72;;;1.70;;
21474;SDS011;10899;53.576;9.960;2022-07-29T04:41:40;3.45;;;2.20;;
21474;SDS011;10899;53.576;9.960;2022-07-29T04:44:06;5.05;;;1.83;;
21474;SDS011;10899;53.576;9.960;2022-07-29T04:46:33;5.40;;;1.65;;
21474;SDS011;10899;53.576;9.960;2022-07-29T04:48:59;2.92;;;1.80;;
21474;SDS011;10899;53.576;9.960;2022-07-29T04:51:26;3.42;;;1.80;;
21474;SDS011;10899;53.576;9.960;2022-07-29T04:53:53;4.75;;;1.98;;
21474;SDS011;10899;53.576;9.960;2022-07-29T04:56:19;4.88;;;1.60;;
21474;SDS011;10899;53.576;9.960;2022-07-29T04:58:46;7.72;;;2.08;;
21474;SDS011;10899;53.576;9.960;2022-07-29T05:01:13;5.15;;;1.95;;
21474;SDS011;10899;53.576;9.960;2022-07-29T05:03:40;5.65;;;2.15;;
21474;SDS011;10899;53.576;9.960;2022-07-29T05:06:06;3.50;;;1.95;;
21474;SDS011;10899;53.576;9.960;2022-07-29T05:08:33;4.82;;;1.52;;
21474;SDS011;10899;53.576;9.960;2022-07-29T05:10:59;3.05;;;1.60;;
21474;SDS011;10899;53.576;9.960;2022-07-29T05:13:26;3.63;;;1.42;;
21474;SDS011;10899;53.576;9.960;2022-07-29T05:15:53;2.63;;;1.83;;
21474;SDS011;10899;53.576;9.960;2022-07-29T05:18:19;5.32;;;2.05;;
21474;SDS011;10899;53.576;9.960;2022-07-29T05:20:46;4.05;;;1.88;;
21474;SDS011;10899;53.576;9.960;2022-07-29T05:23:13;4.50;;;1.70;;
21474;SDS011;10899;53.576;9.960;2022-07-29T05:25:39;3.17;;;1.35;;
21474;SDS011;10899;53.576;9.960;2022-07-29T05:28:06;1.73;;;1.33;;
21474;SDS011;10899;53.576;9.960;2022-07-29T05:30:33;4.13;;;1.50;;
21474;SDS011;10899;53.576;9.960;2022-07-29T05:32:59;2.05;;;1.45;;
21474;SDS011;10899;53.576;9.960;2022-07-29T05:35:26;3.28;;;1.40;;
21474;SDS011;10899;53.576;9.960;2022-07-29T05:37:52;4.15;;;1.48;;
21474;SDS011;10899;53.576;9.960;2022-07-29T05:40:19;5.20;;;1.55;;
21474;SDS011;10899;53.576;9.960;2022-07-29T05:42:45;3.08;;;1.38;;
21474;SDS011;10899;53.576;9.960;2022-07-29T05:45:12;5.88;;;1.60;;
21474;SDS011;10899;53.576;9.960;2022-07-29T05:47:39;3.60;;;1.67;;
21474;SDS011;10899;53.576;9.960;2022-07-29T05:50:05;5.93;;;1.85;;
21474;SDS011;10899;53.576;9.960;2022-07-29T05:52:32;2.95;;;1.35;;
21474;SDS011;10899;53.576;9.960;2022-07-29T05:54:59;2.50;;;1.50;;
21474;SDS011;10899;53.576;9.960;2022-07-29T05:57:29;3.53;;;1.40;;
21474;SDS011;10899;53.576;9.960;2022-07-29T05:59:56;3.88;;;1.50;;
21474;SDS011;10899;53.576;9.960;2022-07-29T06:02:22;4.20;;;1.55;;
21474;SDS011;10899;53.576;9.960;2022-07-29T06:04:49;3.85;;;1.33;;
21474;SDS011;10899;53.576;9.960;2022-07-29T06:07:15;3.35;;;1.10;;
21474;SDS011;10899;53.576;9.960;2022-07-29T06:09:42;2.10;;;1.10;;
21474;SDS011;10899;53.576;9.960;2022-07-29T06:12:09;3.17;;;1.35;;
21474;SDS011;10899;53.576;9.960;2022-07-29T06:14:35;1.63;;;1.30;;
21474;SDS011;10899;53.576;9.960;2022-07-29T06:17:03;3.75;;;1.20;;
21474;SDS011;10899;53.576;9.960;2022-07-29T06:19:30;5.40;;;1.40;;
21474;SDS011;10899;53.576;9.960;2022-07-29T06:21:57;1.77;;;1.20;;
21474;SDS011;10899;53.576;9.960;2022-07-29T06:24:24;2.42;;;1.33;;
21474;SDS011;10899;53.576;9.960;2022-07-29T06:26:50;4.00;;;1.58;;
21474;SDS011;10899;53.576;9.960;2022-07-29T06:29:17;3.67;;;1.38;;
21474;SDS011;10899;53.576;9.960;2022-07-29T06:31:43;2.60;;;1.13;;
21474;SDS011;10899;53.576;9.960;2022-07-29T06:34:10;2.22;;;1.55;;
21474;SDS011;10899;53.576;9.960;2022-07-29T06:36:37;3.53;;;1.10;;
21474;SDS011;10899;53.576;9.960;2022-07-29T06:39:04;3.45;;;1.15;;
21474;SDS011;10899;53.576;9.960;2022-07-29T06:41:31;1.85;;;1.00;;
21474;SDS011;10899;53.576;9.960;2022-07-29T06:43:58;2.42;;;1.20;;
21474;SDS011;10899;53.576;9.960;2022-07-29T06:46:24;2.35;;;1.35;;
21474;SDS011;10899;53.576;9.960;2022-07-29T06:48:51;1.60;;;1.30;;
21474;SDS011;10899;53.576;9.960;2022-07-29T06:51:18;5.63;;;1.20;;
21474;SDS011;10899;53.576;9.960;2022-07-29T06:53:45;2.72;;;1.15;;
21474;SDS011;10899;53.576;9.960;2022-07-29T06:56:11;3.13;;;1.42;;
21474;SDS011;10899;53.576;9.960;2022-07-29T06:58:39;2.17;;;1.08;;
21474;SDS011;10899;53.576;9.960;2022-07-29T07:01:06;2.30;;;1.10;;
21474;SDS011;10899;53.576;9.960;2022-07-29T07:03:33;1.50;;;1.20;;
21474;SDS011;10899;53.576;9.960;2022-07-29T07:05:59;1.85;;;1.10;;
21474;SDS011;10899;53.576;9.960;2022-07-29T07:08:26;2.15;;;1.33;;
21474;SDS011;10899;53.576;9.960;2022-07-29T07:10:53;2.22;;;0.93;;
21474;SDS011;10899;53.576;9.960;2022-07-29T07:13:20;2.53;;;1.00;;
21474;SDS011;10899;53.576;9.960;2022-07-29T07:15:47;3.00;;;1.25;;
21474;SDS011;10899;53.576;9.960;2022-07-29T07:18:14;1.73;;;0.93;;
21474;SDS011;10899;53.576;9.960;2022-07-29T07:20:41;2.00;;;1.02;;
21474;SDS011;10899;53.576;9.960;2022-07-29T07:23:40;1.70;;;1.10;;
21474;SDS011;10899;53.576;9.960;2022-07-29T07:26:06;3.00;;;1.30;;
21474;SDS011;10899;53.576;9.960;2022-07-29T07:28:33;2.25;;;1.10;;
21474;SDS011;10899;53.576;9.960;2022-07-29T07:30:59;3.30;;;1.33;;
21474;SDS011;10899;53.576;9.960;2022-07-29T07:33:26;1.83;;;0.98;;
21474;SDS011;10899;53.576;9.960;2022-07-29T07:35:52;1.67;;;1.00;;
21474;SDS011;10899;53.576;9.960;2022-07-29T07:38:19;1.55;;;0.98;;
21474;SDS011;10899;53.576;9.960;2022-07-29T07:40:51;1.35;;;0.95;;
21474;SDS011;10899;53.576;9.960;2022-07-29T07:43:37;1.98;;;1.05;;
21474;SDS011;10899;53.576;9.960;2022-07-29T07:46:03;1.63;;;0.80;;
21474;SDS011;10899;53.576;9.960;2022-07-29T07:48:30;2.72;;;0.82;;
21474;SDS011;10899;53.576;9.960;2022-07-29T07:50:57;1.23;;;0.90;;
21474;SDS011;10899;53.576;9.960;2022-07-29T07:53:23;1.95;;;1.10;;
21474;SDS011;10899;53.576;9.960;2022-07-29T07:55:50;1.15;;;0.75;;
21474;SDS011;10899;53.576;9.960;2022-07-29T07:58:17;2.30;;;0.88;;
21474;SDS011;10899;53.576;9.960;2022-07-29T08:00:43;2.10;;;0.98;;
21474;SDS011;10899;53.576;9.960;2022-07-29T08:03:10;1.17;;;0.82;;
21474;SDS011;10899;53.576;9.960;2022-07-29T08:05:39;1.27;;;0.98;;
21474;SDS011;10899;53.576;9.960;2022-07-29T08:08:06;3.10;;;1.00;;
21474;SDS011;10899;53.576;9.960;2022-07-29T08:10:32;1.13;;;0.90;;
21474;SDS011;10899;53.576;9.960;2022-07-29T08:13:18;1.08;;;0.80;;
21474;SDS011;10899;53.576;9.960;2022-07-29T08:15:45;1.08;;;0.98;;
21474;SDS011;10899;53.576;9.960;2022-07-29T08:18:12;1.25;;;0.82;;
21474;SDS011;10899;53.576;9.960;2022-07-29T08:20:39;1.70;;;0.95;;
21474;SDS011;10899;53.576;9.960;2022-07-29T08:23:07;1.42;;;0.82;;
21474;SDS011;10899;53.576;9.960;2022-07-29T08:25:36;1.20;;;0.70;;
21474;SDS011;10899;53.576;9.960;2022-07-29T08:28:04;1.20;;;0.85;;
21474;SDS011;10899;53.576;9.960;2022-07-29T08:30:31;1.05;;;0.80;;
21474;SDS011;10899;53.576;9.960;2022-07-29T08:32:58;0.52;;;0.52;;
21474;SDS011;10899;53.576;9.960;2022-07-29T08:35:24;1.50;;;0.90;;
21474;SDS011;10899;53.576;9.960;2022-07-29T08:37:51;0.90;;;0.82;;
21474;SDS011;10899;53.576;9.960;2022-07-29T08:40:19;1.25;;;0.90;;
21474;SDS011;10899;53.576;9.960;2022-07-29T08:42:46;1.95;;;0.90;;
21474;SDS011;10899;53.576;9.960;2022-07-29T08:45:12;1.95;;;0.80;;
21474;SDS011;10899;53.576;9.960;2022-07-29T08:47:39;1.20;;;0.90;;
21474;SDS011;10899;53.576;9.960;2022-07-29T08:50:09;0.88;;;0.77;;
21474;SDS011;10899;53.576;9.960;2022-07-29T08:52:37;1.35;;;0.90;;
21474;SDS011;10899;53.576;9.960;2022-07-29T08:55:04;0.90;;;0.73;;
21474;SDS011;10899;53.576;9.960;2022-07-29T08:57:30;1.23;;;0.85;;
21474;SDS011;10899;53.576;9.960;2022-07-29T08:59:58;1.33;;;0.90;;
21474;SDS011;10899;53.576;9.960;2022-07-29T09:02:25;1.48;;;0.80;;
21474;SDS011;10899;53.576;9.960;2022-07-29T09:04:53;0.93;;;0.77;;
21474;SDS011;10899;53.576;9.960;2022-07-29T09:07:20;1.50;;;0.80;;
21474;SDS011;10899;53.576;9.960;2022-07-29T09:09:47;2.70;;;0.88;;
21474;SDS011;10899;53.576;9.960;2022-07-29T09:12:13;1.50;;;0.88;;
21474;SDS011;10899;53.576;9.960;2022-07-29T09:14:40;1.65;;;0.52;;
21474;SDS011;10899;53.576;9.960;2022-07-29T09:17:07;0.88;;;0.65;;
21474;SDS011;10899;53.576;9.960;2022-07-29T09:19:34;0.75;;;0.70;;
21474;SDS011;10899;53.576;9.960;2022-07-29T09:22:03;0.57;;;0.57;;
21474;SDS011;10899;53.576;9.960;2022-07-29T09:27:00;1.20;;;0.80;;
21474;SDS011;10899;53.576;9.960;2022-07-29T09:29:27;0.73;;;0.70;;
21474;SDS011;10899;53.576;9.960;2022-07-29T09:31:54;1.20;;;0.98;;
21474;SDS011;10899;53.576;9.960;2022-07-29T09:34:29;0.75;;;0.70;;
21474;SDS011;10899;53.576;9.960;2022-07-29T09:36:57;0.50;;;0.50;;
21474;SDS011;10899;53.576;9.960;2022-07-29T09:39:34;0.85;;;0.70;;
21474;SDS011;10899;53.576;9.960;2022-07-29T09:42:02;0.90;;;0.70;;
21474;SDS011;10899;53.576;9.960;2022-07-29T09:47:08;0.70;;;0.70;;
21474;SDS011;10899;53.576;9.960;2022-07-29T09:49:35;0.75;;;0.60;;
21474;SDS011;10899;53.576;9.960;2022-07-29T09:52:06;1.80;;;0.80;;
21474;SDS011;10899;53.576;9.960;2022-07-29T09:54:33;0.77;;;0.70;;
21474;SDS011;10899;53.576;9.960;2022-07-29T09:57:06;0.70;;;0.52;;
21474;SDS011;10899;53.576;9.960;2022-07-29T09:59:34;1.02;;;0.50;;
21474;SDS011;10899;53.576;9.960;2022-07-29T10:02:01;1.45;;;0.70;;
21474;SDS011;10899;53.576;9.960;2022-07-29T10:04:38;0.88;;;0.60;;
21474;SDS011;10899;53.576;9.960;2022-07-29T10:07:04;2.03;;;0.70;;
21474;SDS011;10899;53.576;9.960;2022-07-29T10:09:31;0.60;;;0.60;;
21474;SDS011;10899;53.576;9.960;2022-07-29T10:14:31;0.60;;;0.60;;
21474;SDS011;10899;53.576;9.960;2022-07-29T10:17:02;1.02;;;0.60;;
21474;SDS011;10899;53.576;9.960;2022-07-29T10:19:30;1.13;;;0.60;;
21474;SDS011;10899;53.576;9.960;2022-07-29T10:22:00;0.90;;;0.60;;
21474;SDS011;10899;53.576;9.960;2022-07-29T10:24:27;0.60;;;0.60;;
21474;SDS011;10899;53.576;9.960;2022-07-29T10:26:55;0.55;;;0.40;;
21474;SDS011;10899;53.576;9.960;2022-07-29T10:29:22;0.55;;;0.55;;
21474;SDS011;10899;53.576;9.960;2022-07-29T10:32:34;0.43;;;0.38;;
21474;SDS011;10899;53.576;9.960;2022-07-29T10:39:54;0.50;;;0.50;;
21474;SDS011;10899;53.576;9.960;2022-07-29T10:42:23;1.08;;;0.55;;
21474;SDS011;10899;53.576;9.960;2022-07-29T10:44:51;0.77;;;0.50;;
21474;SDS011;10899;53.576;9.960;2022-07-29T10:49:58;0.50;;;0.50;;
21474;SDS011;10899;53.576;9.960;2022-07-29T10:52:24;0.40;;;0.40;;
21474;SDS011;10899;53.576;9.960;2022-07-29T10:55:29;1.48;;;0.50;;
21474;SDS011;10899;53.576;9.960;2022-07-29T10:58:16;0.82;;;0.50;;
21474;SDS011;10899;53.576;9.960;2022-07-29T11:00:44;0.60;;;0.40;;
21474;SDS011;10899;53.576;9.960;2022-07-29T11:05:58;0.50;;;0.50;;
21474;SDS011;10899;53.576;9.960;2022-07-29T11:08:25;0.80;;;0.60;;
21474;SDS011;10899;53.576;9.960;2022-07-29T11:10:52;1.95;;;0.57;;
21474;SDS011;10899;53.576;9.960;2022-07-29T11:16:04;1.02;;;0.60;;
21474;SDS011;10899;53.576;9.960;2022-07-29T11:18:31;0.47;;;0.47;;
21474;SDS011;10899;53.576;9.960;2022-07-29T11:20:58;0.50;;;0.50;;
21474;SDS011;10899;53.576;9.960;2022-07-29T11:23:26;0.40;;;0.40;;
21474;SDS011;10899;53.576;9.960;2022-07-29T11:31:37;0.65;;;0.50;;
21474;SDS011;10899;53.576;9.960;2022-07-29T11:39:31;0.30;;;0.30;;
21474;SDS011;10899;53.576;9.960;2022-07-29T11:47:22;1.02;;;0.70;;
21474;SDS011;10899;53.576;9.960;2022-07-29T11:49:49;0.63;;;0.63;;
21474;SDS011;10899;53.576;9.960;2022-07-29T11:52:19;0.75;;;0.47;;
21474;SDS011;10899;53.576;9.960;2022-07-29T11:54:49;0.45;;;0.40;;
21474;SDS011;10899;53.576;9.960;2022-07-29T11:57:17;0.38;;;0.38;;
21474;SDS011;10899;53.576;9.960;2022-07-29T11:59:44;0.57;;;0.45;;
21474;SDS011;10899;53.576;9.960;2022-07-29T12:02:11;0.63;;;0.35;;
21474;SDS011;10899;53.576;9.960;2022-07-29T12:07:17;0.80;;;0.60;;
21474;SDS011;10899;53.576;9.960;2022-07-29T12:09:50;0.57;;;0.43;;
21474;SDS011;10899;53.576;9.960;2022-07-29T12:12:17;0.82;;;0.40;;
21474;SDS011;10899;53.576;9.960;2022-07-29T12:14:44;0.50;;;0.50;;
21474;SDS011;10899;53.576;9.960;2022-07-29T12:17:30;0.40;;;0.40;;
21474;SDS011;10899;53.576;9.960;2022-07-29T12:19:58;0.52;;;0.40;;
21474;SDS011;10899;53.576;9.960;2022-07-29T12:22:36;1.48;;;0.47;;
21474;SDS011;10899;53.576;9.960;2022-07-29T12:25:07;0.50;;;0.50;;
21474;SDS011;10899;53.576;9.960;2022-07-29T12:27:37;0.73;;;0.40;;
21474;SDS011;10899;53.576;9.960;2022-07-29T12:30:08;1.45;;;0.60;;
21474;SDS011;10899;53.576;9.960;2022-07-29T12:32:45;0.30;;;0.30;;
21474;SDS011;10899;53.576;9.960;2022-07-29T12:35:13;0.40;;;0.40;;
21474;SDS011;10899;53.576;9.960;2022-07-29T12:37:41;0.50;;;0.50;;
21474;SDS011;10899;53.576;9.960;2022-07-29T12:40:09;0.40;;;0.40;;
21474;SDS011;10899;53.576;9.960;2022-07-29T12:42:36;0.70;;;0.45;;
21474;SDS011;10899;53.576;9.960;2022-07-29T12:45:03;0.43;;;0.40;;
21474;SDS011;10899;53.576;9.960;2022-07-29T12:47:29;0.45;;;0.30;;
21474;SDS011;10899;53.576;9.960;2022-07-29T12:50:12;0.45;;;0.40;;
21474;SDS011;10899;53.576;9.960;2022-07-29T12:52:43;0.38;;;0.38;;
21474;SDS011;10899;53.576;9.960;2022-07-29T12:55:10;0.93;;;0.40;;
21474;SDS011;10899;53.576;9.960;2022-07-29T12:57:50;0.75;;;0.30;;
21474;SDS011;10899;53.576;9.960;2022-07-29T13:00:23;0.30;;;0.30;;
21474;SDS011;10899;53.576;9.960;2022-07-29T13:02:56;0.35;;;0.30;;
21474;SDS011;10899;53.576;9.960;2022-07-29T13:05:23;0.70;;;0.40;;
21474;SDS011;10899;53.576;9.960;2022-07-29T13:07:50;0.40;;;0.40;;
21474;SDS011;10899;53.576;9.960;2022-07-29T13:10:17;0.52;;;0.52;;
21474;SDS011;10899;53.576;9.960;2022-07-29T13:15:29;1.38;;;0.50;;
21474;SDS011;10899;53.576;9.960;2022-07-29T13:17:58;0.30;;;0.30;;
21474;SDS011;10899;53.576;9.960;2022-07-29T13:20:25;0.50;;;0.50;;
21474;SDS011;10899;53.576;9.960;2022-07-29T13:22:55;1.00;;;0.40;;
21474;SDS011;10899;53.576;9.960;2022-07-29T13:25:26;0.73;;;0.38;;
21474;SDS011;10899;53.576;9.960;2022-07-29T13:27:53;2.47;;;0.45;;
21474;SDS011;10899;53.576;9.960;2022-07-29T13:30:20;0.40;;;0.38;;
21474;SDS011;10899;53.576;9.960;2022-07-29T13:32:47;2.00;;;0.45;;
21474;SDS011;10899;53.576;9.960;2022-07-29T13:35:14;1.65;;;0.43;;
21474;SDS011;10899;53.576;9.960;2022-07-29T13:37:41;0.50;;;0.50;;
21474;SDS011;10899;53.576;9.960;2022-07-29T13:40:07;1.27;;;0.50;;
21474;SDS011;10899;53.576;9.960;2022-07-29T13:42:34;0.43;;;0.40;;
21474;SDS011;10899;53.576;9.960;2022-07-29T13:45:01;0.82;;;0.55;;
21474;SDS011;10899;53.576;9.960;2022-07-29T13:47:29;0.55;;;0.40;;
21474;SDS011;10899;53.576;9.960;2022-07-29T13:49:55;0.40;;;0.40;;
21474;SDS011;10899;53.576;9.960;2022-07-29T13:52:22;0.50;;;0.40;;
21474;SDS011;10899;53.576;9.960;2022-07-29T13:54:48;0.35;;;0.30;;
21474;SDS011;10899;53.576;9.960;2022-07-29T13:57:15;0.82;;;0.40;;
21474;SDS011;10899;53.576;9.960;2022-07-29T13:59:42;0.55;;;0.40;;
21474;SDS011;10899;53.576;9.960;2022-07-29T14:02:09;0.52;;;0.30;;
21474;SDS011;10899;53.576;9.960;2022-07-29T14:04:36;1.08;;;0.57;;
21474;SDS011;10899;53.576;9.960;2022-07-29T14:07:02;0.57;;;0.40;;
21474;SDS011;10899;53.576;9.960;2022-07-29T14:09:29;0.60;;;0.35;;
21474;SDS011;10899;53.576;9.960;2022-07-29T14:11:56;0.40;;;0.40;;
21474;SDS011;10899;53.576;9.960;2022-07-29T14:14:23;0.30;;;0.30;;
21474;SDS011;10899;53.576;9.960;2022-07-29T14:16:49;0.35;;;0.35;;
21474;SDS011;10899;53.576;9.960;2022-07-29T14:19:16;0.40;;;0.40;;
21474;SDS011;10899;53.576;9.960;2022-07-29T14:21:42;0.88;;;0.30;;
21474;SDS011;10899;53.576;9.960;2022-07-29T14:24:09;0.50;;;0.40;;
21474;SDS011;10899;53.576;9.960;2022-07-29T14:26:35;0.20;;;0.20;;
21474;SDS011;10899;53.576;9.960;2022-07-29T14:29:02;0.40;;;0.40;;
21474;SDS011;10899;53.576;9.960;2022-07-29T14:31:29;0.30;;;0.30;;
21474;SDS011;10899;53.576;9.960;2022-07-29T14:33:55;0.40;;;0.40;;
21474;SDS011;10899;53.576;9.960;2022-07-29T14:36:22;0.45;;;0.30;;
21474;SDS011;10899;53.576;9.960;2022-07-29T14:38:48;0.52;;;0.43;;
21474;SDS011;10899;53.576;9.960;2022-07-29T14:41:15;0.43;;;0.40;;
21474;SDS011;10899;53.576;9.960;2022-07-29T14:43:41;0.77;;;0.50;;
21474;SDS011;10899;53.576;9.960;2022-07-29T14:46:08;1.50;;;0.50;;
21474;SDS011;10899;53.576;9.960;2022-07-29T14:48:35;0.45;;;0.40;;
21474;SDS011;10899;53.576;9.960;2022-07-29T14:51:01;1.10;;;0.40;;
21474;SDS011;10899;53.576;9.960;2022-07-29T14:53:28;0.80;;;0.43;;
21474;SDS011;10899;53.576;9.960;2022-07-29T14:55:54;1.80;;;0.60;;
21474;SDS011;10899;53.576;9.960;2022-07-29T14:58:21;0.65;;;0.40;;
21474;SDS011;10899;53.576;9.960;2022-07-29T15:00:47;1.00;;;0.68;;
21474;SDS011;10899;53.576;9.960;2022-07-29T15:03:14;3.00;;;0.60;;
21474;SDS011;10899;53.576;9.960;2022-07-29T15:05:41;0.82;;;0.68;;
21474;SDS011;10899;53.576;9.960;2022-07-29T15:08:07;1.38;;;0.70;;
21474;SDS011;10899;53.576;9.960;2022-07-29T15:10:34;0.85;;;0.60;;
21474;SDS011;10899;53.576;9.960;2022-07-29T15:13:01;0.45;;;0.45;;
21474;SDS011;10899;53.576;9.960;2022-07-29T15:15:27;1.02;;;0.50;;
21474;SDS011;10899;53.576;9.960;2022-07-29T15:17:54;0.50;;;0.45;;
21474;SDS011;10899;53.576;9.960;2022-07-29T15:20:21;13.05;;;1.02;;
21474;SDS011;10899;53.576;9.960;2022-07-29T15:22:50;2.00;;;0.50;;
21474;SDS011;10899;53.576;9.960;2022-07-29T15:25:21;2.45;;;0.63;;
21474;SDS011;10899;53.576;9.960;2022-07-29T15:27:47;0.93;;;0.63;;
21474;SDS011;10899;53.576;9.960;2022-07-29T15:30:14;1.85;;;0.50;;
21474;SDS011;10899;53.576;9.960;2022-07-29T15:32:44;1.65;;;0.63;;
21474;SDS011;10899;53.576;9.960;2022-07-29T15:35:11;1.77;;;0.70;;
21474;SDS011;10899;53.576;9.960;2022-07-29T15:37:38;1.38;;;0.50;;
21474;SDS011;10899;53.576;9.960;2022-07-29T15:40:19;1.00;;;0.50;;
21474;SDS011;10899;53.576;9.960;2022-07-29T15:42:46;3.25;;;0.57;;
21474;SDS011;10899;53.576;9.960;2022-07-29T15:45:13;1.20;;;0.65;;
21474;SDS011;10899;53.576;9.960;2022-07-29T15:47:39;2.30;;;0.82;;
21474;SDS011;10899;53.576;9.960;2022-07-29T15:50:06;2.53;;;0.88;;
21474;SDS011;10899;53.576;9.960;2022-07-29T15:52:37;3.83;;;0.93;;
21474;SDS011;10899;53.576;9.960;2022-07-29T15:55:03;2.55;;;1.10;;